Culdesac, Idaho
Current Conditions -  °F | °C
As of 5:56 AM on Friday 28 Nov 2014 (Local Time) from KLWS Reporting Station
Overcast Overcast  
Wind Chill: 57°   Ceiling: 8000
Heat Index: 57°   Visibility: 10mi
Dew Point: 43°   Wind: 17mph
Humidity: 59%   Direction: 190°S
Pressure: 29.66"   Gusts: 28mph
Location:  46.37°N, 116.67°W
Report Text: KLWS 281356Z AUTO 19015G24KT 10SM SCT055 OVC080 14/06 A2966 RMK AO2 RAB34E42 SLP041 P0000 T01390061
Loading
Personal Weather Stations






























Interactive Weather Map New forecast layout! Learn more

10-Day Weather Forecast

Advertisements
Track Severe Weather on mobile